Tuscarora, New York
Current Conditions -  °F | °C
As of 8:54 AM on Friday 31 Oct 2014 (Local Time) from KDSV Reporting Station
Overcast Overcast  
Wind Chill: 35°   Ceiling: 6000
Heat Index: 40°   Visibility: 10mi
Dew Point: 35°   Wind: 7mph
Humidity: 83%   Direction: 160°SSE
Pressure: 29.99"   Gusts: NA
Location:  42.6879°N, 77.8772°W
Report Text: KDSV 311254Z AUTO 16006KT 10SM OVC060 04/02 A2999 RMK AO2 SLP168 T00440017
Loading
Personal Weather Stations






























Interactive Weather Map New forecast layout! Learn more

10-Day Weather Forecast

Advertisements
Track Severe Weather on mobile